sensor_id;sensor_type;location;lat;lon;timestamp;P1;durP1;ratioP1;P2;durP2;ratioP2
9884;SDS011;4981;50.966;4.842;2022-12-29T00:00:08;1.90;;;0.90;;
9884;SDS011;4981;50.966;4.842;2022-12-29T00:02:37;0.80;;;0.77;;
9884;SDS011;4981;50.966;4.842;2022-12-29T00:05:04;2.10;;;0.90;;
9884;SDS011;4981;50.966;4.842;2022-12-29T00:07:32;1.40;;;0.70;;
9884;SDS011;4981;50.966;4.842;2022-12-29T00:09:59;1.63;;;0.97;;
9884;SDS011;4981;50.966;4.842;2022-12-29T00:12:26;0.67;;;0.63;;
9884;SDS011;4981;50.966;4.842;2022-12-29T00:15:15;1.27;;;0.93;;
9884;SDS011;4981;50.966;4.842;2022-12-29T00:18:00;0.60;;;0.60;;
9884;SDS011;4981;50.966;4.842;2022-12-29T00:20:27;1.30;;;0.90;;
9884;SDS011;4981;50.966;4.842;2022-12-29T00:23:11;1.67;;;0.83;;
9884;SDS011;4981;50.966;4.842;2022-12-29T00:26:12;2.00;;;1.10;;
9884;SDS011;4981;50.966;4.842;2022-12-29T00:29:04;0.70;;;0.57;;
9884;SDS011;4981;50.966;4.842;2022-12-29T00:31:50;2.03;;;0.80;;
9884;SDS011;4981;50.966;4.842;2022-12-29T00:34:34;1.57;;;0.80;;
9884;SDS011;4981;50.966;4.842;2022-12-29T00:37:19;2.00;;;0.67;;
9884;SDS011;4981;50.966;4.842;2022-12-29T00:40:07;1.73;;;0.73;;
9884;SDS011;4981;50.966;4.842;2022-12-29T00:42:52;2.03;;;0.73;;
9884;SDS011;4981;50.966;4.842;2022-12-29T00:45:36;2.00;;;0.57;;
9884;SDS011;4981;50.966;4.842;2022-12-29T00:48:08;1.70;;;0.63;;
9884;SDS011;4981;50.966;4.842;2022-12-29T00:50:35;1.37;;;0.67;;
9884;SDS011;4981;50.966;4.842;2022-12-29T00:53:01;1.87;;;0.70;;
9884;SDS011;4981;50.966;4.842;2022-12-29T00:55:28;5.20;;;0.57;;
9884;SDS011;4981;50.966;4.842;2022-12-29T00:57:56;1.47;;;0.53;;
9884;SDS011;4981;50.966;4.842;2022-12-29T01:00:23;1.50;;;0.50;;
9884;SDS011;4981;50.966;4.842;2022-12-29T01:02:50;3.03;;;0.70;;
9884;SDS011;4981;50.966;4.842;2022-12-29T01:05:18;2.27;;;0.60;;
9884;SDS011;4981;50.966;4.842;2022-12-29T01:07:45;3.03;;;0.50;;
9884;SDS011;4981;50.966;4.842;2022-12-29T01:10:12;2.03;;;0.80;;
9884;SDS011;4981;50.966;4.842;2022-12-29T01:12:39;2.00;;;0.50;;
9884;SDS011;4981;50.966;4.842;2022-12-29T01:15:07;2.50;;;0.60;;
9884;SDS011;4981;50.966;4.842;2022-12-29T01:17:36;3.17;;;0.73;;
9884;SDS011;4981;50.966;4.842;2022-12-29T01:20:04;3.27;;;0.90;;
9884;SDS011;4981;50.966;4.842;2022-12-29T01:22:33;2.37;;;0.93;;
9884;SDS011;4981;50.966;4.842;2022-12-29T01:25:00;6.60;;;0.70;;
9884;SDS011;4981;50.966;4.842;2022-12-29T01:27:27;2.43;;;0.90;;
9884;SDS011;4981;50.966;4.842;2022-12-29T01:29:54;2.43;;;0.60;;
9884;SDS011;4981;50.966;4.842;2022-12-29T01:32:21;3.00;;;0.67;;
9884;SDS011;4981;50.966;4.842;2022-12-29T01:34:48;4.67;;;0.70;;
9884;SDS011;4981;50.966;4.842;2022-12-29T01:37:15;1.53;;;0.60;;
9884;SDS011;4981;50.966;4.842;2022-12-29T01:39:44;1.87;;;0.67;;
9884;SDS011;4981;50.966;4.842;2022-12-29T01:42:12;3.53;;;0.67;;
9884;SDS011;4981;50.966;4.842;2022-12-29T01:44:49;1.60;;;0.60;;
9884;SDS011;4981;50.966;4.842;2022-12-29T01:47:21;4.87;;;0.90;;
9884;SDS011;4981;50.966;4.842;2022-12-29T01:49:56;1.33;;;0.67;;
9884;SDS011;4981;50.966;4.842;2022-12-29T01:52:28;2.77;;;0.80;;
9884;SDS011;4981;50.966;4.842;2022-12-29T01:55:00;2.93;;;0.83;;
9884;SDS011;4981;50.966;4.842;2022-12-29T01:57:29;6.30;;;0.77;;
9884;SDS011;4981;50.966;4.842;2022-12-29T02:00:00;3.33;;;0.93;;
9884;SDS011;4981;50.966;4.842;2022-12-29T02:02:30;3.20;;;0.97;;
9884;SDS011;4981;50.966;4.842;2022-12-29T02:04:58;2.43;;;0.80;;
9884;SDS011;4981;50.966;4.842;2022-12-29T02:07:28;2.80;;;1.00;;
9884;SDS011;4981;50.966;4.842;2022-12-29T02:09:55;2.40;;;0.80;;
9884;SDS011;4981;50.966;4.842;2022-12-29T02:12:24;1.70;;;0.67;;
9884;SDS011;4981;50.966;4.842;2022-12-29T02:14:52;5.57;;;1.03;;
9884;SDS011;4981;50.966;4.842;2022-12-29T02:17:26;4.70;;;0.83;;
9884;SDS011;4981;50.966;4.842;2022-12-29T02:23:14;4.67;;;0.70;;
9884;SDS011;4981;50.966;4.842;2022-12-29T02:29:21;7.53;;;0.70;;
9884;SDS011;4981;50.966;4.842;2022-12-29T02:32:07;4.80;;;0.93;;
9884;SDS011;4981;50.966;4.842;2022-12-29T02:34:45;3.00;;;0.60;;
9884;SDS011;4981;50.966;4.842;2022-12-29T02:37:19;9.93;;;1.17;;
9884;SDS011;4981;50.966;4.842;2022-12-29T02:39:52;2.67;;;0.63;;
9884;SDS011;4981;50.966;4.842;2022-12-29T02:42:28;0.80;;;0.30;;
9884;SDS011;4981;50.966;4.842;2022-12-29T02:45:03;11.60;;;0.80;;
9884;SDS011;4981;50.966;4.842;2022-12-29T02:47:36;28.67;;;1.33;;
9884;SDS011;4981;50.966;4.842;2022-12-29T02:50:08;8.07;;;0.90;;
9884;SDS011;4981;50.966;4.842;2022-12-29T02:52:42;28.03;;;1.50;;
9884;SDS011;4981;50.966;4.842;2022-12-29T02:55:14;7.40;;;0.80;;
9884;SDS011;4981;50.966;4.842;2022-12-29T02:57:40;0.00;;;0.00;;
9884;SDS011;4981;50.966;4.842;2022-12-29T03:00:07;0.00;;;0.00;;
9884;SDS011;4981;50.966;4.842;2022-12-29T03:02:42;0.00;;;0.00;;
9884;SDS011;4981;50.966;4.842;2022-12-29T03:05:35;0.00;;;0.00;;
9884;SDS011;4981;50.966;4.842;2022-12-29T03:08:17;0.00;;;0.00;;
9884;SDS011;4981;50.966;4.842;2022-12-29T03:10:51;0.00;;;0.00;;
9884;SDS011;4981;50.966;4.842;2022-12-29T03:13:26;4.70;;;2.00;;
9884;SDS011;4981;50.966;4.842;2022-12-29T03:16:18;10.13;;;3.57;;
9884;SDS011;4981;50.966;4.842;2022-12-29T03:18:53;3.10;;;0.47;;
9884;SDS011;4981;50.966;4.842;2022-12-29T03:21:30;9.13;;;1.60;;
9884;SDS011;4981;50.966;4.842;2022-12-29T03:24:17;15.47;;;1.80;;
9884;SDS011;4981;50.966;4.842;2022-12-29T03:26:48;4.37;;;1.40;;
9884;SDS011;4981;50.966;4.842;2022-12-29T03:29:17;5.53;;;1.07;;
9884;SDS011;4981;50.966;4.842;2022-12-29T03:31:47;8.40;;;1.67;;
9884;SDS011;4981;50.966;4.842;2022-12-29T03:34:17;2.83;;;1.30;;
9884;SDS011;4981;50.966;4.842;2022-12-29T03:36:48;12.30;;;1.77;;
9884;SDS011;4981;50.966;4.842;2022-12-29T03:39:19;8.80;;;1.30;;
9884;SDS011;4981;50.966;4.842;2022-12-29T03:41:47;36.03;;;3.87;;
9884;SDS011;4981;50.966;4.842;2022-12-29T03:44:21;16.47;;;2.10;;
9884;SDS011;4981;50.966;4.842;2022-12-29T03:46:58;7.27;;;1.67;;
9884;SDS011;4981;50.966;4.842;2022-12-29T03:49:26;6.97;;;1.37;;
9884;SDS011;4981;50.966;4.842;2022-12-29T03:51:53;4.13;;;1.40;;
9884;SDS011;4981;50.966;4.842;2022-12-29T03:54:20;7.67;;;1.50;;
9884;SDS011;4981;50.966;4.842;2022-12-29T03:56:47;4.20;;;1.37;;
9884;SDS011;4981;50.966;4.842;2022-12-29T03:59:14;5.50;;;1.20;;
9884;SDS011;4981;50.966;4.842;2022-12-29T04:01:41;6.57;;;0.73;;
9884;SDS011;4981;50.966;4.842;2022-12-29T04:04:08;6.50;;;1.23;;
9884;SDS011;4981;50.966;4.842;2022-12-29T04:06:37;2.33;;;1.17;;
9884;SDS011;4981;50.966;4.842;2022-12-29T04:09:05;8.10;;;1.87;;
9884;SDS011;4981;50.966;4.842;2022-12-29T04:11:32;6.40;;;1.37;;
9884;SDS011;4981;50.966;4.842;2022-12-29T04:13:59;5.43;;;1.20;;
9884;SDS011;4981;50.966;4.842;2022-12-29T04:16:26;8.67;;;1.20;;
9884;SDS011;4981;50.966;4.842;2022-12-29T04:18:53;5.13;;;1.17;;
9884;SDS011;4981;50.966;4.842;2022-12-29T04:21:20;5.23;;;1.20;;
9884;SDS011;4981;50.966;4.842;2022-12-29T04:23:49;6.03;;;1.20;;
9884;SDS011;4981;50.966;4.842;2022-12-29T04:26:16;6.37;;;1.30;;
9884;SDS011;4981;50.966;4.842;2022-12-29T04:28:43;7.07;;;1.77;;
9884;SDS011;4981;50.966;4.842;2022-12-29T04:31:09;10.00;;;1.37;;
9884;SDS011;4981;50.966;4.842;2022-12-29T04:33:36;8.37;;;1.20;;
9884;SDS011;4981;50.966;4.842;2022-12-29T04:36:04;8.57;;;1.50;;
9884;SDS011;4981;50.966;4.842;2022-12-29T04:38:31;8.07;;;1.23;;
9884;SDS011;4981;50.966;4.842;2022-12-29T04:41:00;4.23;;;1.23;;
9884;SDS011;4981;50.966;4.842;2022-12-29T04:43:27;5.33;;;0.80;;
9884;SDS011;4981;50.966;4.842;2022-12-29T04:45:55;5.90;;;1.37;;
9884;SDS011;4981;50.966;4.842;2022-12-29T04:48:22;5.67;;;1.27;;
9884;SDS011;4981;50.966;4.842;2022-12-29T04:50:49;6.37;;;1.30;;
9884;SDS011;4981;50.966;4.842;2022-12-29T04:53:16;6.53;;;1.00;;
9884;SDS011;4981;50.966;4.842;2022-12-29T04:55:44;4.73;;;0.90;;
9884;SDS011;4981;50.966;4.842;2022-12-29T04:58:15;7.47;;;0.93;;
9884;SDS011;4981;50.966;4.842;2022-12-29T05:00:43;7.53;;;1.20;;
9884;SDS011;4981;50.966;4.842;2022-12-29T05:03:10;8.90;;;1.70;;
9884;SDS011;4981;50.966;4.842;2022-12-29T05:05:37;6.73;;;0.87;;
9884;SDS011;4981;50.966;4.842;2022-12-29T05:08:04;8.17;;;1.10;;
9884;SDS011;4981;50.966;4.842;2022-12-29T05:10:31;6.17;;;1.10;;
9884;SDS011;4981;50.966;4.842;2022-12-29T05:12:58;7.20;;;1.40;;
9884;SDS011;4981;50.966;4.842;2022-12-29T05:15:27;6.67;;;1.10;;
9884;SDS011;4981;50.966;4.842;2022-12-29T05:17:54;5.60;;;1.10;;
9884;SDS011;4981;50.966;4.842;2022-12-29T05:20:21;6.80;;;1.20;;
9884;SDS011;4981;50.966;4.842;2022-12-29T05:22:48;6.97;;;1.13;;
9884;SDS011;4981;50.966;4.842;2022-12-29T05:25:15;4.10;;;0.90;;
9884;SDS011;4981;50.966;4.842;2022-12-29T05:27:42;6.87;;;1.30;;
9884;SDS011;4981;50.966;4.842;2022-12-29T05:30:10;8.73;;;1.80;;
9884;SDS011;4981;50.966;4.842;2022-12-29T05:32:39;8.70;;;1.60;;
9884;SDS011;4981;50.966;4.842;2022-12-29T05:35:06;6.50;;;1.00;;
9884;SDS011;4981;50.966;4.842;2022-12-29T05:37:34;3.47;;;0.87;;
9884;SDS011;4981;50.966;4.842;2022-12-29T05:40:01;9.33;;;1.40;;
9884;SDS011;4981;50.966;4.842;2022-12-29T05:42:28;8.37;;;1.33;;
9884;SDS011;4981;50.966;4.842;2022-12-29T05:44:55;6.73;;;1.40;;
9884;SDS011;4981;50.966;4.842;2022-12-29T05:47:22;10.20;;;1.57;;
9884;SDS011;4981;50.966;4.842;2022-12-29T05:49:50;8.03;;;0.97;;
9884;SDS011;4981;50.966;4.842;2022-12-29T05:52:17;4.10;;;1.30;;
9884;SDS011;4981;50.966;4.842;2022-12-29T05:54:45;11.27;;;1.50;;
9884;SDS011;4981;50.966;4.842;2022-12-29T05:57:12;5.97;;;0.90;;
9884;SDS011;4981;50.966;4.842;2022-12-29T05:59:39;8.00;;;1.30;;
9884;SDS011;4981;50.966;4.842;2022-12-29T06:02:07;4.43;;;1.27;;
9884;SDS011;4981;50.966;4.842;2022-12-29T06:04:33;5.10;;;1.00;;
9884;SDS011;4981;50.966;4.842;2022-12-29T06:07:02;6.43;;;1.50;;
9884;SDS011;4981;50.966;4.842;2022-12-29T06:09:29;7.00;;;1.30;;
9884;SDS011;4981;50.966;4.842;2022-12-29T06:11:56;7.00;;;1.33;;
9884;SDS011;4981;50.966;4.842;2022-12-29T06:14:23;11.73;;;1.90;;
9884;SDS011;4981;50.966;4.842;2022-12-29T06:16:50;8.70;;;1.90;;
9884;SDS011;4981;50.966;4.842;2022-12-29T06:19:17;8.37;;;1.80;;
9884;SDS011;4981;50.966;4.842;2022-12-29T06:21:44;5.17;;;1.00;;
9884;SDS011;4981;50.966;4.842;2022-12-29T06:24:13;9.37;;;2.00;;
9884;SDS011;4981;50.966;4.842;2022-12-29T06:26:40;12.33;;;1.63;;
9884;SDS011;4981;50.966;4.842;2022-12-29T06:29:07;8.97;;;1.90;;
9884;SDS011;4981;50.966;4.842;2022-12-29T06:31:34;7.13;;;1.50;;
9884;SDS011;4981;50.966;4.842;2022-12-29T06:34:01;4.20;;;1.17;;
9884;SDS011;4981;50.966;4.842;2022-12-29T06:36:29;8.80;;;1.20;;
9884;SDS011;4981;50.966;4.842;2022-12-29T06:38:56;5.87;;;1.20;;
9884;SDS011;4981;50.966;4.842;2022-12-29T06:41:24;8.40;;;1.70;;
9884;SDS011;4981;50.966;4.842;2022-12-29T06:43:51;6.20;;;1.90;;
9884;SDS011;4981;50.966;4.842;2022-12-29T06:46:18;6.27;;;1.67;;
9884;SDS011;4981;50.966;4.842;2022-12-29T06:48:45;6.53;;;1.90;;
9884;SDS011;4981;50.966;4.842;2022-12-29T06:51:12;10.17;;;2.03;;
9884;SDS011;4981;50.966;4.842;2022-12-29T06:53:39;9.30;;;1.80;;
9884;SDS011;4981;50.966;4.842;2022-12-29T06:56:06;8.93;;;2.00;;
9884;SDS011;4981;50.966;4.842;2022-12-29T06:58:35;5.43;;;1.37;;
9884;SDS011;4981;50.966;4.842;2022-12-29T07:01:02;7.63;;;1.93;;
9884;SDS011;4981;50.966;4.842;2022-12-29T07:03:29;5.70;;;1.50;;
9884;SDS011;4981;50.966;4.842;2022-12-29T07:05:57;6.90;;;1.47;;
9884;SDS011;4981;50.966;4.842;2022-12-29T07:08:24;10.93;;;1.53;;
9884;SDS011;4981;50.966;4.842;2022-12-29T07:10:51;5.13;;;1.20;;
9884;SDS011;4981;50.966;4.842;2022-12-29T07:13:18;9.87;;;2.23;;
9884;SDS011;4981;50.966;4.842;2022-12-29T07:15:47;6.80;;;1.40;;
9884;SDS011;4981;50.966;4.842;2022-12-29T07:18:14;8.10;;;1.57;;
9884;SDS011;4981;50.966;4.842;2022-12-29T07:20:41;15.03;;;2.40;;
9884;SDS011;4981;50.966;4.842;2022-12-29T07:23:08;6.63;;;1.77;;
9884;SDS011;4981;50.966;4.842;2022-12-29T07:25:35;5.40;;;1.50;;
9884;SDS011;4981;50.966;4.842;2022-12-29T07:28:02;9.27;;;2.37;;
9884;SDS011;4981;50.966;4.842;2022-12-29T07:30:29;12.70;;;4.50;;
9884;SDS011;4981;50.966;4.842;2022-12-29T07:32:58;7.53;;;2.20;;
9884;SDS011;4981;50.966;4.842;2022-12-29T07:35:25;5.63;;;1.90;;
9884;SDS011;4981;50.966;4.842;2022-12-29T07:37:52;9.73;;;2.10;;
9884;SDS011;4981;50.966;4.842;2022-12-29T07:40:19;7.60;;;1.80;;
9884;SDS011;4981;50.966;4.842;2022-12-29T07:42:46;11.00;;;1.33;;
9884;SDS011;4981;50.966;4.842;2022-12-29T07:45:13;7.27;;;1.50;;
9884;SDS011;4981;50.966;4.842;2022-12-29T07:47:40;6.07;;;1.40;;
9884;SDS011;4981;50.966;4.842;2022-12-29T07:50:08;9.63;;;1.73;;
9884;SDS011;4981;50.966;4.842;2022-12-29T07:52:35;8.73;;;1.97;;
9884;SDS011;4981;50.966;4.842;2022-12-29T07:55:02;9.37;;;1.90;;
9884;SDS011;4981;50.966;4.842;2022-12-29T07:57:29;10.87;;;2.10;;
9884;SDS011;4981;50.966;4.842;2022-12-29T07:59:56;7.37;;;1.73;;
9884;SDS011;4981;50.966;4.842;2022-12-29T08:02:24;7.93;;;1.70;;
9884;SDS011;4981;50.966;4.842;2022-12-29T08:04:51;7.77;;;2.37;;
9884;SDS011;4981;50.966;4.842;2022-12-29T08:07:20;9.83;;;1.93;;
9884;SDS011;4981;50.966;4.842;2022-12-29T08:09:47;5.23;;;1.63;;
9884;SDS011;4981;50.966;4.842;2022-12-29T08:12:14;11.30;;;2.20;;
9884;SDS011;4981;50.966;4.842;2022-12-29T08:14:41;11.27;;;1.60;;
9884;SDS011;4981;50.966;4.842;2022-12-29T08:17:08;7.57;;;1.57;;
9884;SDS011;4981;50.966;4.842;2022-12-29T08:19:36;13.47;;;2.10;;
9884;SDS011;4981;50.966;4.842;2022-12-29T08:22:05;8.80;;;1.53;;
9884;SDS011;4981;50.966;4.842;2022-12-29T08:24:33;10.77;;;2.00;;
9884;SDS011;4981;50.966;4.842;2022-12-29T08:27:00;8.67;;;1.77;;
9884;SDS011;4981;50.966;4.842;2022-12-29T08:29:28;5.67;;;1.30;;
9884;SDS011;4981;50.966;4.842;2022-12-29T08:31:55;6.27;;;1.37;;
9884;SDS011;4981;50.966;4.842;2022-12-29T08:34:22;10.87;;;2.33;;
9884;SDS011;4981;50.966;4.842;2022-12-29T08:36:49;8.50;;;1.73;;
9884;SDS011;4981;50.966;4.842;2022-12-29T08:39:16;6.67;;;1.50;;
9884;SDS011;4981;50.966;4.842;2022-12-29T08:41:45;10.77;;;2.50;;
9884;SDS011;4981;50.966;4.842;2022-12-29T08:44:12;8.90;;;1.80;;
9884;SDS011;4981;50.966;4.842;2022-12-29T08:46:39;6.80;;;1.83;;
9884;SDS011;4981;50.966;4.842;2022-12-29T08:49:06;8.10;;;2.00;;
9884;SDS011;4981;50.966;4.842;2022-12-29T08:51:33;6.87;;;2.23;;
9884;SDS011;4981;50.966;4.842;2022-12-29T08:54:00;12.70;;;1.80;;
9884;SDS011;4981;50.966;4.842;2022-12-29T08:56:27;7.17;;;1.80;;
9884;SDS011;4981;50.966;4.842;2022-12-29T08:58:55;8.60;;;1.67;;
9884;SDS011;4981;50.966;4.842;2022-12-29T09:01:22;8.10;;;1.60;;
9884;SDS011;4981;50.966;4.842;2022-12-29T09:03:49;8.63;;;1.70;;
9884;SDS011;4981;50.966;4.842;2022-12-29T09:06:17;7.47;;;1.77;;
9884;SDS011;4981;50.966;4.842;2022-12-29T09:08:44;8.10;;;1.67;;
9884;SDS011;4981;50.966;4.842;2022-12-29T09:11:12;8.37;;;2.50;;
9884;SDS011;4981;50.966;4.842;2022-12-29T09:13:42;7.27;;;2.10;;
9884;SDS011;4981;50.966;4.842;2022-12-29T09:16:11;9.17;;;2.40;;
9884;SDS011;4981;50.966;4.842;2022-12-29T09:18:38;11.20;;;2.70;;
9884;SDS011;4981;50.966;4.842;2022-12-29T09:21:06;10.27;;;2.53;;
9884;SDS011;4981;50.966;4.842;2022-12-29T09:23:33;11.77;;;2.50;;
9884;SDS011;4981;50.966;4.842;2022-12-29T09:26:00;11.03;;;2.40;;
9884;SDS011;4981;50.966;4.842;2022-12-29T09:28:27;6.70;;;1.67;;
9884;SDS011;4981;50.966;4.842;2022-12-29T09:30:55;8.53;;;2.30;;
9884;SDS011;4981;50.966;4.842;2022-12-29T09:33:24;7.83;;;2.07;;
9884;SDS011;4981;50.966;4.842;2022-12-29T09:35:53;11.37;;;2.33;;
9884;SDS011;4981;50.966;4.842;2022-12-29T09:38:22;13.30;;;2.70;;
9884;SDS011;4981;50.966;4.842;2022-12-29T09:40:50;12.57;;;2.87;;
9884;SDS011;4981;50.966;4.842;2022-12-29T09:43:24;15.37;;;2.47;;
9884;SDS011;4981;50.966;4.842;2022-12-29T09:46:08;13.63;;;4.23;;
9884;SDS011;4981;50.966;4.842;2022-12-29T09:48:43;7.40;;;2.57;;
9884;SDS011;4981;50.966;4.842;2022-12-29T09:51:15;11.23;;;2.37;;
9884;SDS011;4981;50.966;4.842;2022-12-29T09:53:46;10.97;;;2.80;;
9884;SDS011;4981;50.966;4.842;2022-12-29T09:56:20;10.23;;;2.00;;
9884;SDS011;4981;50.966;4.842;2022-12-29T09:58:50;12.33;;;2.37;;
9884;SDS011;4981;50.966;4.842;2022-12-29T10:01:23;7.17;;;1.90;;
9884;SDS011;4981;50.966;4.842;2022-12-29T10:03:57;11.47;;;2.43;;
9884;SDS011;4981;50.966;4.842;2022-12-29T10:06:30;14.27;;;2.43;;
9884;SDS011;4981;50.966;4.842;2022-12-29T10:09:02;10.40;;;2.30;;
9884;SDS011;4981;50.966;4.842;2022-12-29T10:11:40;13.23;;;2.80;;
9884;SDS011;4981;50.966;4.842;2022-12-29T10:14:31;12.73;;;2.33;;
9884;SDS011;4981;50.966;4.842;2022-12-29T10:17:10;11.60;;;3.10;;
9884;SDS011;4981;50.966;4.842;2022-12-29T10:19:54;8.03;;;1.93;;
9884;SDS011;4981;50.966;4.842;2022-12-29T10:22:32;9.87;;;2.33;;
9884;SDS011;4981;50.966;4.842;2022-12-29T10:25:11;7.33;;;1.67;;
9884;SDS011;4981;50.966;4.842;2022-12-29T10:27:42;12.70;;;2.07;;
9884;SDS011;4981;50.966;4.842;2022-12-29T10:30:13;13.80;;;2.37;;
9884;SDS011;4981;50.966;4.842;2022-12-29T10:32:42;8.10;;;1.70;;
9884;SDS011;4981;50.966;4.842;2022-12-29T10:35:16;11.47;;;2.23;;
9884;SDS011;4981;50.966;4.842;2022-12-29T10:37:48;11.33;;;2.67;;
9884;SDS011;4981;50.966;4.842;2022-12-29T10:40:22;9.53;;;2.17;;
9884;SDS011;4981;50.966;4.842;2022-12-29T10:42:52;10.00;;;2.20;;
9884;SDS011;4981;50.966;4.842;2022-12-29T10:45:21;9.40;;;2.20;;
9884;SDS011;4981;50.966;4.842;2022-12-29T10:47:52;13.63;;;2.47;;
9884;SDS011;4981;50.966;4.842;2022-12-29T10:50:25;11.80;;;2.37;;
9884;SDS011;4981;50.966;4.842;2022-12-29T10:52:54;9.47;;;2.40;;
9884;SDS011;4981;50.966;4.842;2022-12-29T10:55:25;11.23;;;1.93;;
9884;SDS011;4981;50.966;4.842;2022-12-29T10:57:55;10.43;;;2.77;;
9884;SDS011;4981;50.966;4.842;2022-12-29T11:00:27;12.20;;;2.70;;
9884;SDS011;4981;50.966;4.842;2022-12-29T11:06:06;11.80;;;2.40;;
9884;SDS011;4981;50.966;4.842;2022-12-29T11:08:37;18.73;;;3.20;;
9884;SDS011;4981;50.966;4.842;2022-12-29T11:11:08;8.13;;;1.93;;
9884;SDS011;4981;50.966;4.842;2022-12-29T11:13:46;8.60;;;1.87;;
9884;SDS011;4981;50.966;4.842;2022-12-29T11:16:15;9.93;;;2.47;;
9884;SDS011;4981;50.966;4.842;2022-12-29T11:18:55;9.43;;;2.43;;
9884;SDS011;4981;50.966;4.842;2022-12-29T11:21:34;8.47;;;2.00;;
9884;SDS011;4981;50.966;4.842;2022-12-29T11:24:05;8.40;;;2.10;;
9884;SDS011;4981;50.966;4.842;2022-12-29T11:26:46;6.93;;;1.90;;
9884;SDS011;4981;50.966;4.842;2022-12-29T11:29:21;10.07;;;1.87;;
9884;SDS011;4981;50.966;4.842;2022-12-29T11:31:50;8.73;;;2.03;;
9884;SDS011;4981;50.966;4.842;2022-12-29T11:34:23;9.23;;;2.40;;
9884;SDS011;4981;50.966;4.842;2022-12-29T11:36:53;9.40;;;1.73;;
9884;SDS011;4981;50.966;4.842;2022-12-29T11:39:28;8.43;;;2.13;;
9884;SDS011;4981;50.966;4.842;2022-12-29T11:41:58;12.80;;;2.20;;
9884;SDS011;4981;50.966;4.842;2022-12-29T11:44:35;6.47;;;2.10;;
9884;SDS011;4981;50.966;4.842;2022-12-29T11:47:04;9.63;;;1.90;;
9884;SDS011;4981;50.966;4.842;2022-12-29T11:49:35;7.90;;;1.97;;
9884;SDS011;4981;50.966;4.842;2022-12-29T11:52:03;12.03;;;2.93;;
9884;SDS011;4981;50.966;4.842;2022-12-29T11:54:32;10.60;;;2.17;;
9884;SDS011;4981;50.966;4.842;2022-12-29T11:57:08;8.40;;;1.83;;
9884;SDS011;4981;50.966;4.842;2022-12-29T11:59:42;10.00;;;2.47;;
9884;SDS011;4981;50.966;4.842;2022-12-29T12:05:03;8.13;;;1.63;;
9884;SDS011;4981;50.966;4.842;2022-12-29T12:07:40;10.83;;;2.43;;
9884;SDS011;4981;50.966;4.842;2022-12-29T12:10:19;14.10;;;1.87;;
9884;SDS011;4981;50.966;4.842;2022-12-29T12:12:51;8.50;;;2.00;;
9884;SDS011;4981;50.966;4.842;2022-12-29T12:15:25;9.67;;;1.97;;
9884;SDS011;4981;50.966;4.842;2022-12-29T12:17:57;9.30;;;1.90;;
9884;SDS011;4981;50.966;4.842;2022-12-29T12:20:34;9.53;;;2.20;;
9884;SDS011;4981;50.966;4.842;2022-12-29T12:23:12;7.77;;;1.97;;
9884;SDS011;4981;50.966;4.842;2022-12-29T12:25:51;11.60;;;2.33;;
9884;SDS011;4981;50.966;4.842;2022-12-29T12:28:25;6.90;;;1.87;;
9884;SDS011;4981;50.966;4.842;2022-12-29T12:31:00;6.60;;;1.70;;
9884;SDS011;4981;50.966;4.842;2022-12-29T12:33:32;6.40;;;2.10;;
9884;SDS011;4981;50.966;4.842;2022-12-29T12:36:13;12.07;;;1.90;;
9884;SDS011;4981;50.966;4.842;2022-12-29T12:39:07;10.77;;;3.23;;
9884;SDS011;4981;50.966;4.842;2022-12-29T12:41:41;10.27;;;1.93;;
9884;SDS011;4981;50.966;4.842;2022-12-29T12:44:18;8.47;;;2.00;;
9884;SDS011;4981;50.966;4.842;2022-12-29T12:46:56;11.47;;;2.40;;
9884;SDS011;4981;50.966;4.842;2022-12-29T12:50:12;10.57;;;2.83;;
9884;SDS011;4981;50.966;4.842;2022-12-29T12:52:55;12.43;;;2.40;;
9884;SDS011;4981;50.966;4.842;2022-12-29T12:55:40;10.93;;;3.20;;
9884;SDS011;4981;50.966;4.842;2022-12-29T12:58:22;16.37;;;3.67;;
9884;SDS011;4981;50.966;4.842;2022-12-29T13:01:02;15.63;;;3.93;;
9884;SDS011;4981;50.966;4.842;2022-12-29T13:03:43;9.70;;;3.00;;
9884;SDS011;4981;50.966;4.842;2022-12-29T13:06:18;8.07;;;2.30;;
9884;SDS011;4981;50.966;4.842;2022-12-29T13:12:03;14.80;;;3.73;;
9884;SDS011;4981;50.966;4.842;2022-12-29T13:14:42;15.27;;;3.50;;
9884;SDS011;4981;50.966;4.842;2022-12-29T13:17:22;13.00;;;2.57;;
9884;SDS011;4981;50.966;4.842;2022-12-29T13:19:53;9.87;;;1.87;;
9884;SDS011;4981;50.966;4.842;2022-12-29T13:22:29;8.00;;;1.77;;
9884;SDS011;4981;50.966;4.842;2022-12-29T13:25:08;9.70;;;2.57;;
9884;SDS011;4981;50.966;4.842;2022-12-29T13:27:50;8.07;;;1.93;;
9884;SDS011;4981;50.966;4.842;2022-12-29T13:30:22;7.60;;;1.73;;
9884;SDS011;4981;50.966;4.842;2022-12-29T13:32:56;6.93;;;1.60;;
9884;SDS011;4981;50.966;4.842;2022-12-29T13:35:33;9.40;;;1.90;;
9884;SDS011;4981;50.966;4.842;2022-12-29T13:38:11;9.47;;;1.77;;
9884;SDS011;4981;50.966;4.842;2022-12-29T13:40:45;9.43;;;1.80;;
9884;SDS011;4981;50.966;4.842;2022-12-29T13:43:24;7.23;;;1.50;;
9884;SDS011;4981;50.966;4.842;2022-12-29T13:45:55;5.97;;;1.83;;
9884;SDS011;4981;50.966;4.842;2022-12-29T13:48:28;11.87;;;2.00;;
9884;SDS011;4981;50.966;4.842;2022-12-29T13:51:00;6.77;;;1.57;;
9884;SDS011;4981;50.966;4.842;2022-12-29T13:53:30;6.17;;;1.87;;
9884;SDS011;4981;50.966;4.842;2022-12-29T13:56:06;7.77;;;1.93;;
9884;SDS011;4981;50.966;4.842;2022-12-29T13:58:41;8.37;;;1.40;;
9884;SDS011;4981;50.966;4.842;2022-12-29T14:01:14;7.10;;;1.97;;
9884;SDS011;4981;50.966;4.842;2022-12-29T14:03:49;10.87;;;1.63;;
9884;SDS011;4981;50.966;4.842;2022-12-29T14:06:20;6.13;;;1.87;;
9884;SDS011;4981;50.966;4.842;2022-12-29T14:08:51;8.10;;;1.57;;
9884;SDS011;4981;50.966;4.842;2022-12-29T14:11:21;7.17;;;1.73;;
9884;SDS011;4981;50.966;4.842;2022-12-29T14:13:53;11.70;;;1.80;;
9884;SDS011;4981;50.966;4.842;2022-12-29T14:16:30;12.67;;;2.53;;
9884;SDS011;4981;50.966;4.842;2022-12-29T14:19:05;10.70;;;2.40;;
9884;SDS011;4981;50.966;4.842;2022-12-29T14:21:39;8.80;;;2.17;;
9884;SDS011;4981;50.966;4.842;2022-12-29T14:24:26;11.33;;;2.60;;
9884;SDS011;4981;50.966;4.842;2022-12-29T14:33:20;10.63;;;2.30;;
9884;SDS011;4981;50.966;4.842;2022-12-29T14:35:49;12.23;;;2.80;;
9884;SDS011;4981;50.966;4.842;2022-12-29T14:38:29;9.80;;;2.23;;
9884;SDS011;4981;50.966;4.842;2022-12-29T14:44:00;11.83;;;2.70;;
9884;SDS011;4981;50.966;4.842;2022-12-29T14:46:42;10.30;;;2.40;;
9884;SDS011;4981;50.966;4.842;2022-12-29T14:49:16;8.80;;;2.10;;
9884;SDS011;4981;50.966;4.842;2022-12-29T14:51:45;14.73;;;2.33;;
9884;SDS011;4981;50.966;4.842;2022-12-29T14:57:27;9.47;;;2.43;;
9884;SDS011;4981;50.966;4.842;2022-12-29T15:00:00;13.30;;;2.97;;
9884;SDS011;4981;50.966;4.842;2022-12-29T15:02:33;9.57;;;2.60;;
9884;SDS011;4981;50.966;4.842;2022-12-29T15:05:10;13.33;;;2.53;;
9884;SDS011;4981;50.966;4.842;2022-12-29T15:07:52;9.70;;;2.47;;
9884;SDS011;4981;50.966;4.842;2022-12-29T15:10:21;16.03;;;3.70;;
9884;SDS011;4981;50.966;4.842;2022-12-29T15:12:52;11.93;;;2.20;;
9884;SDS011;4981;50.966;4.842;2022-12-29T15:15:21;22.80;;;6.20;;
9884;SDS011;4981;50.966;4.842;2022-12-29T15:17:49;15.33;;;2.83;;
9884;SDS011;4981;50.966;4.842;2022-12-29T15:20:20;12.57;;;2.47;;
9884;SDS011;4981;50.966;4.842;2022-12-29T15:22:51;14.13;;;2.37;;
9884;SDS011;4981;50.966;4.842;2022-12-29T15:25:21;15.47;;;2.37;;
9884;SDS011;4981;50.966;4.842;2022-12-29T15:27:49;17.73;;;4.90;;
9884;SDS011;4981;50.966;4.842;2022-12-29T15:30:18;17.23;;;3.50;;
9884;SDS011;4981;50.966;4.842;2022-12-29T15:32:46;11.97;;;3.10;;
9884;SDS011;4981;50.966;4.842;2022-12-29T15:35:30;20.43;;;4.47;;
9884;SDS011;4981;50.966;4.842;2022-12-29T15:37:59;17.80;;;3.50;;
9884;SDS011;4981;50.966;4.842;2022-12-29T15:40:28;24.90;;;3.63;;
9884;SDS011;4981;50.966;4.842;2022-12-29T15:43:09;20.40;;;3.20;;
9884;SDS011;4981;50.966;4.842;2022-12-29T15:45:55;21.87;;;3.43;;
9884;SDS011;4981;50.966;4.842;2022-12-29T15:48:23;16.57;;;2.63;;
9884;SDS011;4981;50.966;4.842;2022-12-29T15:50:52;17.77;;;3.23;;
9884;SDS011;4981;50.966;4.842;2022-12-29T15:53:21;14.80;;;2.97;;
9884;SDS011;4981;50.966;4.842;2022-12-29T15:55:53;18.03;;;3.83;;
9884;SDS011;4981;50.966;4.842;2022-12-29T15:58:24;17.43;;;4.17;;
9884;SDS011;4981;50.966;4.842;2022-12-29T16:00:53;18.13;;;3.67;;
9884;SDS011;4981;50.966;4.842;2022-12-29T16:03:24;12.03;;;3.37;;